Time;durP1;ratioP1;P1;durP2;ratioP2;P2;SDS_P1;SDS_P2;PMS_P1;PMS_P2;Temp;Humidity;BMP_temperature;BMP_pressure;BME280_temperature;BME280_humidity;BME280_pressure;Samples;Min_cycle;Max_cycle;Signal;HPM_P1;HPM_P2
2023/10/14 00:00:42;;;;;;;5.30;4.10;;;;;;;;;;5096434;28;20533;-60
2023/10/14 00:03:26;;;;;;;6.13;4.13;;;;;;;;;;5096312;28;20478;-60
2023/10/14 00:05:55;;;;;;;4.50;3.83;;;;;;;;;;5096191;28;20944;-60
2023/10/14 00:08:24;;;;;;;10.20;5.43;;;;;;;;;;5095999;28;20474;-60
2023/10/14 00:10:51;;;;;;;6.80;4.77;;;;;;;;;;5096314;28;20452;-60
2023/10/14 00:13:18;;;;;;;5.10;4.03;;;;;;;;;;5096168;28;20481;-60
2023/10/14 00:15:45;;;;;;;6.33;3.90;;;;;;;;;;5096106;28;20779;-60
2023/10/14 00:18:13;;;;;;;3.57;3.27;;;;;;;;;;5095961;28;20451;-61
2023/10/14 00:20:40;;;;;;;4.67;3.30;;;;;;;;;;5096177;28;20443;-60
2023/10/14 00:23:11;;;;;;;5.07;4.57;;;;;;;;;;5096061;28;20541;-60
2023/10/14 00:25:38;;;;;;;4.13;2.93;;;;;;;;;;5095990;28;20450;-60
2023/10/14 00:28:12;;;;;;;8.77;3.40;;;;;;;;;;5096175;28;21047;-60
2023/10/14 00:30:39;;;;;;;4.87;3.33;;;;;;;;;;5095211;28;20443;-60
2023/10/14 00:33:06;;;;;;;6.70;3.67;;;;;;;;;;5095576;28;20999;-60
2023/10/14 00:35:33;;;;;;;9.23;3.80;;;;;;;;;;5095829;28;20474;-60
2023/10/14 00:38:08;;;;;;;6.23;4.10;;;;;;;;;;5095766;28;20438;-60
2023/10/14 00:40:38;;;;;;;3.90;3.37;;;;;;;;;;5095633;28;20925;-60
2023/10/14 00:43:05;;;;;;;9.43;3.60;;;;;;;;;;5095573;28;20442;-60
2023/10/14 00:45:32;;;;;;;6.43;3.90;;;;;;;;;;5095440;28;20439;-60
2023/10/14 00:48:00;;;;;;;8.40;3.67;;;;;;;;;;5095500;28;20446;-61
2023/10/14 00:50:33;;;;;;;10.73;4.57;;;;;;;;;;5095477;28;20485;-59
2023/10/14 00:53:05;;;;;;;10.23;4.03;;;;;;;;;;5095459;28;20443;-59
2023/10/14 00:55:45;;;;;;;10.10;3.97;;;;;;;;;;5095309;28;20524;-59
2023/10/14 00:58:20;;;;;;;4.67;3.90;;;;;;;;;;5095789;28;20489;-59
2023/10/14 01:00:56;;;;;;;6.63;4.50;;;;;;;;;;5095386;28;20453;-60
2023/10/14 01:03:23;;;;;;;6.67;4.50;;;;;;;;;;5095643;28;20442;-59
2023/10/14 01:05:50;;;;;;;7.17;5.10;;;;;;;;;;5095149;28;20449;-59
2023/10/14 01:08:22;;;;;;;5.37;4.30;;;;;;;;;;5094788;28;20482;-59
2023/10/14 01:10:49;;;;;;;10.37;4.90;;;;;;;;;;5095239;28;20804;-59
2023/10/14 01:13:21;;;;;;;5.63;4.87;;;;;;;;;;5095156;28;20480;-59
2023/10/14 01:15:51;;;;;;;6.53;4.03;;;;;;;;;;5094978;28;20446;-59
2023/10/14 01:18:18;;;;;;;7.87;4.27;;;;;;;;;;5094934;28;20442;-59
2023/10/14 01:20:46;;;;;;;6.50;4.27;;;;;;;;;;5094821;28;20446;-59
2023/10/14 01:23:15;;;;;;;7.77;4.10;;;;;;;;;;5095013;28;20446;-58
2023/10/14 01:25:46;;;;;;;9.10;4.83;;;;;;;;;;5094752;28;20951;-59
2023/10/14 01:28:15;;;;;;;4.20;3.90;;;;;;;;;;5094727;28;20439;-59
2023/10/14 01:30:47;;;;;;;9.60;4.67;;;;;;;;;;5094670;28;20490;-59
2023/10/14 01:33:16;;;;;;;5.60;3.90;;;;;;;;;;5094611;28;20442;-59
2023/10/14 01:35:45;;;;;;;4.03;3.67;;;;;;;;;;5094734;28;20455;-59
2023/10/14 01:38:12;;;;;;;6.80;4.00;;;;;;;;;;5094583;28;20453;-59
2023/10/14 01:40:40;;;;;;;8.20;3.80;;;;;;;;;;5094740;28;20542;-59
2023/10/14 01:43:08;;;;;;;5.47;4.10;;;;;;;;;;5093546;28;20953;-59
2023/10/14 01:45:40;;;;;;;6.97;4.07;;;;;;;;;;5094294;28;20565;-59
2023/10/14 01:48:14;;;;;;;5.87;4.03;;;;;;;;;;5094464;28;20431;-59
2023/10/14 01:50:44;;;;;;;7.33;3.70;;;;;;;;;;5094383;28;20435;-59
2023/10/14 01:53:12;;;;;;;4.80;4.20;;;;;;;;;;5094282;28;20438;-59
2023/10/14 01:55:41;;;;;;;12.60;3.77;;;;;;;;;;5093990;28;20450;-59
2023/10/14 01:58:10;;;;;;;6.00;4.57;;;;;;;;;;5094026;28;20817;-59
2023/10/14 02:00:37;;;;;;;4.70;4.30;;;;;;;;;;5094200;28;20454;-59
2023/10/14 02:03:06;;;;;;;6.83;4.53;;;;;;;;;;5094196;28;20522;-59
2023/10/14 02:05:40;;;;;;;4.40;3.97;;;;;;;;;;5094050;28;20779;-59
2023/10/14 02:08:13;;;;;;;4.93;3.63;;;;;;;;;;5094008;28;20466;-59
2023/10/14 02:10:46;;;;;;;4.73;4.27;;;;;;;;;;5093701;28;20485;-59
2023/10/14 02:13:13;;;;;;;5.93;4.77;;;;;;;;;;5094068;28;20530;-59
2023/10/14 02:15:40;;;;;;;4.63;4.00;;;;;;;;;;5093838;28;20454;-59
2023/10/14 02:18:07;;;;;;;6.67;3.80;;;;;;;;;;5093819;28;20527;-59
2023/10/14 02:20:38;;;;;;;4.70;3.63;;;;;;;;;;5093710;28;21029;-60
2023/10/14 02:23:05;;;;;;;5.33;4.43;;;;;;;;;;5093693;28;20466;-59
2023/10/14 02:25:33;;;;;;;4.97;3.77;;;;;;;;;;5093548;28;20938;-59
2023/10/14 02:28:01;;;;;;;6.80;4.17;;;;;;;;;;5093692;28;20447;-59
2023/10/14 02:30:32;;;;;;;11.20;4.90;;;;;;;;;;5093542;28;20569;-59
2023/10/14 02:32:59;;;;;;;5.50;3.70;;;;;;;;;;5093469;28;20930;-59
2023/10/14 02:35:26;;;;;;;5.00;3.70;;;;;;;;;;5093530;28;20443;-59
2023/10/14 02:37:54;;;;;;;5.93;3.93;;;;;;;;;;5093336;28;20507;-59
2023/10/14 02:40:26;;;;;;;6.73;4.17;;;;;;;;;;5093302;28;20450;-59
2023/10/14 02:42:57;;;;;;;5.13;3.93;;;;;;;;;;5093340;28;20967;-59
2023/10/14 02:45:26;;;;;;;9.37;3.80;;;;;;;;;;5093432;28;20439;-59
2023/10/14 02:48:01;;;;;;;5.50;3.67;;;;;;;;;;5093307;28;20508;-59
2023/10/14 02:50:28;;;;;;;6.20;3.50;;;;;;;;;;5093164;28;20532;-59
2023/10/14 02:53:01;;;;;;;5.83;3.97;;;;;;;;;;5093407;28;20450;-59
2023/10/14 02:55:50;;;;;;;5.33;3.67;;;;;;;;;;5093248;28;20447;-59
2023/10/14 02:58:19;;;;;;;10.83;4.07;;;;;;;;;;5093035;28;20442;-59
2023/10/14 03:00:50;;;;;;;5.20;3.87;;;;;;;;;;5093118;28;20450;-59
2023/10/14 03:03:21;;;;;;;4.40;3.50;;;;;;;;;;5093350;28;20515;-59
2023/10/14 03:05:52;;;;;;;6.07;3.83;;;;;;;;;;5093090;28;20972;-59
2023/10/14 03:08:19;;;;;;;6.97;3.80;;;;;;;;;;5093043;28;20470;-59
2023/10/14 03:10:53;;;;;;;9.87;3.60;;;;;;;;;;5092873;28;20478;-59
2023/10/14 03:13:22;;;;;;;4.80;3.50;;;;;;;;;;5092972;28;20941;-59
2023/10/14 03:15:52;;;;;;;11.27;4.20;;;;;;;;;;5093161;28;20878;-59
2023/10/14 03:18:20;;;;;;;4.87;4.47;;;;;;;;;;5093124;28;20810;-59
2023/10/14 03:21:00;;;;;;;6.53;3.97;;;;;;;;;;5092977;28;20465;-59
2023/10/14 03:23:28;;;;;;;5.87;4.07;;;;;;;;;;5092964;28;20805;-59
2023/10/14 03:26:03;;;;;;;5.50;3.93;;;;;;;;;;5092792;28;20455;-59
2023/10/14 03:28:30;;;;;;;6.07;4.60;;;;;;;;;;5092967;28;20533;-59
2023/10/14 03:30:59;;;;;;;6.67;4.60;;;;;;;;;;5092634;28;21031;-59
2023/10/14 03:33:29;;;;;;;6.97;3.73;;;;;;;;;;5092778;28;20453;-60
2023/10/14 03:36:00;;;;;;;6.67;3.93;;;;;;;;;;5092766;28;20482;-59
2023/10/14 03:38:39;;;;;;;10.40;4.27;;;;;;;;;;5092773;28;20478;-59
2023/10/14 03:41:16;;;;;;;5.67;4.10;;;;;;;;;;5092830;28;20904;-59
2023/10/14 03:43:47;;;;;;;6.90;5.00;;;;;;;;;;5093025;28;20533;-60
2023/10/14 03:46:16;;;;;;;5.60;4.30;;;;;;;;;;5092735;28;20521;-60
2023/10/14 03:48:50;;;;;;;8.17;5.10;;;;;;;;;;5092566;28;20496;-60
2023/10/14 03:51:24;;;;;;;4.77;4.30;;;;;;;;;;5092781;28;20445;-60
2023/10/14 03:53:52;;;;;;;4.63;4.23;;;;;;;;;;5092760;28;20439;-60
2023/10/14 03:56:20;;;;;;;7.27;4.20;;;;;;;;;;5092635;28;20453;-60
2023/10/14 03:58:47;;;;;;;6.10;4.10;;;;;;;;;;5092595;28;20577;-60
2023/10/14 04:01:22;;;;;;;7.73;4.47;;;;;;;;;;5092398;28;20465;-60
2023/10/14 04:03:52;;;;;;;6.40;3.73;;;;;;;;;;5092747;28;20445;-60
2023/10/14 04:06:19;;;;;;;6.20;4.13;;;;;;;;;;5094327;28;20446;-61
2023/10/14 04:08:47;;;;;;;6.20;3.70;;;;;;;;;;5096330;28;20477;-60
2023/10/14 04:11:15;;;;;;;5.90;3.87;;;;;;;;;;5096187;28;20486;-60
2023/10/14 04:13:51;;;;;;;5.10;3.70;;;;;;;;;;5096062;28;20438;-60
2023/10/14 04:16:27;;;;;;;5.40;3.77;;;;;;;;;;5096389;28;20457;-60
2023/10/14 04:18:59;;;;;;;4.60;3.60;;;;;;;;;;5096279;28;20474;-60
2023/10/14 04:21:35;;;;;;;5.83;3.80;;;;;;;;;;5096058;28;20500;-60
2023/10/14 04:24:12;;;;;;;5.90;4.10;;;;;;;;;;5095956;28;20529;-60
2023/10/14 04:26:41;;;;;;;7.23;3.70;;;;;;;;;;5096074;28;20446;-60
2023/10/14 04:29:34;;;;;;;5.33;3.90;;;;;;;;;;5095915;28;20450;-59
2023/10/14 04:32:13;;;;;;;4.00;3.60;;;;;;;;;;5095692;28;20446;-60
2023/10/14 04:34:40;;;;;;;5.70;3.27;;;;;;;;;;5095660;28;20802;-60
2023/10/14 04:37:08;;;;;;;4.97;3.53;;;;;;;;;;5095879;28;20449;-60
2023/10/14 04:39:42;;;;;;;7.40;4.57;;;;;;;;;;5095676;28;20928;-59
2023/10/14 04:42:25;;;;;;;7.83;3.60;;;;;;;;;;5095732;28;20524;-59
2023/10/14 04:44:56;;;;;;;7.20;3.53;;;;;;;;;;5095541;28;20450;-59
2023/10/14 04:47:35;;;;;;;7.70;4.00;;;;;;;;;;5095758;28;20447;-59
2023/10/14 04:50:09;;;;;;;5.00;3.87;;;;;;;;;;5095561;28;20470;-60
2023/10/14 04:52:36;;;;;;;3.40;3.07;;;;;;;;;;5095429;28;20962;-60
2023/10/14 04:55:18;;;;;;;8.80;4.17;;;;;;;;;;5095303;28;20447;-60
2023/10/14 04:57:50;;;;;;;7.57;4.00;;;;;;;;;;5095552;28;20533;-60
2023/10/14 05:00:31;;;;;;;3.63;3.33;;;;;;;;;;5095435;28;20457;-60
2023/10/14 05:03:01;;;;;;;5.27;3.80;;;;;;;;;;5095318;28;20443;-60
2023/10/14 05:05:32;;;;;;;8.47;4.27;;;;;;;;;;5095267;28;20492;-60
2023/10/14 05:07:59;;;;;;;4.13;3.33;;;;;;;;;;5095098;28;20470;-60
2023/10/14 05:10:28;;;;;;;7.10;4.17;;;;;;;;;;5095186;28;20577;-60
2023/10/14 05:12:55;;;;;;;6.17;4.43;;;;;;;;;;5095140;28;20443;-59
2023/10/14 05:15:26;;;;;;;5.60;4.30;;;;;;;;;;5095042;28;20881;-59
2023/10/14 05:17:54;;;;;;;10.50;4.03;;;;;;;;;;5095086;28;20443;-60
2023/10/14 05:20:28;;;;;;;6.80;3.87;;;;;;;;;;5094722;28;20496;-59
2023/10/14 05:22:56;;;;;;;5.80;4.00;;;;;;;;;;5094987;28;20538;-59
2023/10/14 05:25:27;;;;;;;5.63;4.53;;;;;;;;;;5094837;28;20450;-59
2023/10/14 05:27:58;;;;;;;5.53;3.80;;;;;;;;;;5095324;28;20446;-59
2023/10/14 05:30:32;;;;;;;5.80;4.10;;;;;;;;;;5094676;28;21012;-59
2023/10/14 05:33:06;;;;;;;6.07;4.20;;;;;;;;;;5094550;28;20438;-59
2023/10/14 05:35:37;;;;;;;4.30;3.90;;;;;;;;;;5094736;28;20443;-59
2023/10/14 05:38:09;;;;;;;9.00;5.07;;;;;;;;;;5094645;28;20565;-59
2023/10/14 05:40:36;;;;;;;4.83;4.33;;;;;;;;;;5094461;28;20941;-59
2023/10/14 05:43:06;;;;;;;5.20;4.43;;;;;;;;;;5094451;28;20445;-59
2023/10/14 05:45:34;;;;;;;5.93;4.37;;;;;;;;;;5094296;28;20466;-59
2023/10/14 05:48:01;;;;;;;6.00;5.10;;;;;;;;;;5094540;28;20438;-59
2023/10/14 05:50:28;;;;;;;10.70;4.83;;;;;;;;;;5094301;28;20486;-59
2023/10/14 05:52:56;;;;;;;6.30;5.10;;;;;;;;;;5094468;28;20541;-61
2023/10/14 05:55:23;;;;;;;5.07;4.57;;;;;;;;;;5094139;28;20449;-60
2023/10/14 05:57:50;;;;;;;7.87;5.93;;;;;;;;;;5094065;28;20545;-60
2023/10/14 06:00:25;;;;;;;6.80;5.00;;;;;;;;;;5094309;28;20510;-60
2023/10/14 06:02:52;;;;;;;12.33;5.83;;;;;;;;;;5094174;28;20534;-60
2023/10/14 06:05:21;;;;;;;9.67;5.60;;;;;;;;;;5093982;28;20446;-60
2023/10/14 06:07:47;;;;;;;5.20;4.80;;;;;;;;;;5093829;28;20524;-60
2023/10/14 06:10:22;;;;;;;5.27;4.77;;;;;;;;;;5093782;28;20467;-60
2023/10/14 06:12:51;;;;;;;7.43;3.70;;;;;;;;;;5094099;28;20540;-60
2023/10/14 06:15:19;;;;;;;3.47;1.80;;;;;;;;;;5093912;28;20453;-60
2023/10/14 06:17:47;;;;;;;1.20;1.10;;;;;;;;;;5093698;28;20446;-60
2023/10/14 06:20:15;;;;;;;4.47;1.10;;;;;;;;;;5093792;28;20447;-60
2023/10/14 06:22:42;;;;;;;1.97;1.00;;;;;;;;;;5093634;28;20451;-60
2023/10/14 06:25:14;;;;;;;0.90;0.80;;;;;;;;;;5092968;28;20590;-59
2023/10/14 06:27:45;;;;;;;1.60;0.77;;;;;;;;;;5093699;28;20434;-60
2023/10/14 06:30:18;;;;;;;1.20;0.70;;;;;;;;;;5093280;28;20527;-59
2023/10/14 06:32:47;;;;;;;0.80;0.70;;;;;;;;;;5093627;28;20525;-59
2023/10/14 06:35:14;;;;;;;1.40;0.90;;;;;;;;;;5093673;28;20529;-59
2023/10/14 06:37:43;;;;;;;1.57;0.80;;;;;;;;;;5093192;28;20526;-60
2023/10/14 06:40:12;;;;;;;2.20;0.80;;;;;;;;;;5093535;28;20453;-60
2023/10/14 06:42:43;;;;;;;2.50;0.90;;;;;;;;;;5093240;28;20457;-59
2023/10/14 06:45:13;;;;;;;2.00;0.73;;;;;;;;;;5093447;28;20949;-60
2023/10/14 06:47:45;;;;;;;1.23;0.80;;;;;;;;;;5093674;28;20744;-59
2023/10/14 06:50:12;;;;;;;2.60;0.97;;;;;;;;;;5092854;28;20988;-60
2023/10/14 06:52:39;;;;;;;1.57;0.77;;;;;;;;;;5093532;28;20452;-60
2023/10/14 06:55:07;;;;;;;2.90;0.90;;;;;;;;;;5093362;28;20442;-60
2023/10/14 06:57:34;;;;;;;3.40;0.90;;;;;;;;;;5093210;28;20442;-59
2023/10/14 07:00:07;;;;;;;1.23;0.83;;;;;;;;;;5093047;28;20937;-60
2023/10/14 07:02:36;;;;;;;1.37;0.70;;;;;;;;;;5093283;28;20489;-59
2023/10/14 07:05:05;;;;;;;0.90;0.70;;;;;;;;;;5093215;28;20450;-60
2023/10/14 07:07:33;;;;;;;0.80;0.70;;;;;;;;;;5093071;28;20482;-59
2023/10/14 07:10:00;;;;;;;2.57;0.83;;;;;;;;;;5092972;28;20453;-59
2023/10/14 07:12:28;;;;;;;1.80;0.80;;;;;;;;;;5092994;28;20455;-59
2023/10/14 07:14:55;;;;;;;2.03;1.00;;;;;;;;;;5092950;28;20535;-59
2023/10/14 07:17:25;;;;;;;2.50;1.00;;;;;;;;;;5092789;28;20443;-59
2023/10/14 07:19:53;;;;;;;2.40;1.20;;;;;;;;;;5093300;28;20447;-59
2023/10/14 07:22:21;;;;;;;1.40;0.73;;;;;;;;;;5093017;28;20541;-59
2023/10/14 07:24:48;;;;;;;1.00;0.70;;;;;;;;;;5092896;28;20450;-59
2023/10/14 07:27:17;;;;;;;1.37;0.80;;;;;;;;;;5092854;28;20454;-59
2023/10/14 07:29:45;;;;;;;1.60;0.90;;;;;;;;;;5093284;28;20805;-59
2023/10/14 07:32:15;;;;;;;2.23;0.60;;;;;;;;;;5092802;28;20479;-60
2023/10/14 07:34:41;;;;;;;1.00;0.90;;;;;;;;;;5092666;28;20941;-59
2023/10/14 07:37:10;;;;;;;0.80;0.80;;;;;;;;;;5092928;28;20499;-60
2023/10/14 07:39:37;;;;;;;1.20;0.93;;;;;;;;;;5092711;28;20481;-59
2023/10/14 07:42:09;;;;;;;1.53;0.80;;;;;;;;;;5095946;28;20450;-59
2023/10/14 07:44:36;;;;;;;2.10;0.90;;;;;;;;;;5096632;28;20447;-60
2023/10/14 07:47:05;;;;;;;1.40;0.90;;;;;;;;;;5096845;28;20854;-59
2023/10/14 07:49:33;;;;;;;1.33;0.80;;;;;;;;;;5096479;28;20450;-60
2023/10/14 07:52:00;;;;;;;1.87;1.10;;;;;;;;;;5096557;28;20705;-60
2023/10/14 07:54:30;;;;;;;1.30;1.03;;;;;;;;;;5096433;28;20450;-59
2023/10/14 07:56:57;;;;;;;2.10;1.30;;;;;;;;;;5096580;28;20545;-59
2023/10/14 07:59:24;;;;;;;3.07;0.83;;;;;;;;;;5096499;28;20446;-59
2023/10/14 08:01:52;;;;;;;0.93;0.83;;;;;;;;;;5096500;28;20497;-59
2023/10/14 08:04:23;;;;;;;0.90;0.90;;;;;;;;;;5096493;28;20975;-59
2023/10/14 08:06:50;;;;;;;1.43;1.00;;;;;;;;;;5096186;28;20561;-60
2023/10/14 08:09:24;;;;;;;1.47;0.90;;;;;;;;;;5095613;28;20450;-60
2023/10/14 08:11:53;;;;;;;0.80;0.80;;;;;;;;;;5095688;28;20845;-60
2023/10/14 08:14:20;;;;;;;1.83;1.00;;;;;;;;;;5096255;28;20525;-60
2023/10/14 08:16:47;;;;;;;3.27;1.00;;;;;;;;;;5096080;28;20525;-59
2023/10/14 08:19:15;;;;;;;1.30;0.80;;;;;;;;;;5096135;28;20844;-59
2023/10/14 08:21:42;;;;;;;1.30;0.80;;;;;;;;;;5095908;28;20898;-60
2023/10/14 08:24:14;;;;;;;1.43;1.10;;;;;;;;;;5096174;28;20481;-60
2023/10/14 08:26:41;;;;;;;1.77;0.80;;;;;;;;;;5096039;28;20801;-60
2023/10/14 08:29:12;;;;;;;1.27;0.87;;;;;;;;;;5095981;28;20533;-59
2023/10/14 08:31:42;;;;;;;2.37;1.53;;;;;;;;;;5095840;28;20860;-59
2023/10/14 08:34:09;;;;;;;2.20;1.10;;;;;;;;;;5095704;28;20493;-60
2023/10/14 08:36:36;;;;;;;1.50;0.90;;;;;;;;;;5095879;28;20503;-60
2023/10/14 08:39:03;;;;;;;1.00;0.90;;;;;;;;;;5095761;28;20801;-60
2023/10/14 08:41:34;;;;;;;3.73;1.10;;;;;;;;;;5095831;28;21008;-60
2023/10/14 08:44:08;;;;;;;3.37;1.20;;;;;;;;;;5095745;28;20489;-59
2023/10/14 08:46:39;;;;;;;3.13;1.13;;;;;;;;;;5095464;28;20442;-60
2023/10/14 08:49:07;;;;;;;2.53;1.10;;;;;;;;;;5095785;28;20972;-60
2023/10/14 08:51:35;;;;;;;2.27;1.20;;;;;;;;;;5095020;28;20849;-59
2023/10/14 08:54:06;;;;;;;2.57;1.50;;;;;;;;;;5095410;28;20504;-59
2023/10/14 08:56:34;;;;;;;1.87;1.10;;;;;;;;;;5095312;28;20945;-59
2023/10/14 08:59:03;;;;;;;4.03;2.20;;;;;;;;;;5095381;28;20537;-60
2023/10/14 09:01:31;;;;;;;3.07;1.43;;;;;;;;;;5095621;28;20474;-60
2023/10/14 09:04:00;;;;;;;2.50;1.20;;;;;;;;;;5095170;28;20442;-60
2023/10/14 09:06:27;;;;;;;5.03;1.37;;;;;;;;;;5095002;28;20461;-60
2023/10/14 09:08:54;;;;;;;3.10;1.60;;;;;;;;;;5095117;28;20446;-60
2023/10/14 09:11:28;;;;;;;5.23;1.60;;;;;;;;;;5095004;28;20565;-59
2023/10/14 09:14:11;;;;;;;5.80;1.47;;;;;;;;;;5095129;28;20482;-59
2023/10/14 09:16:39;;;;;;;6.30;1.20;;;;;;;;;;5095053;28;20457;-60
2023/10/14 09:19:09;;;;;;;8.10;1.70;;;;;;;;;;5094925;28;20450;-59
2023/10/14 09:21:43;;;;;;;4.20;1.40;;;;;;;;;;5094859;28;20814;-59
2023/10/14 09:24:10;;;;;;;3.27;1.30;;;;;;;;;;5094763;28;20446;-60
2023/10/14 09:26:38;;;;;;;4.33;1.33;;;;;;;;;;5094667;28;20473;-59
2023/10/14 09:29:05;;;;;;;6.30;1.17;;;;;;;;;;5094825;28;20534;-59
2023/10/14 09:31:37;;;;;;;4.00;1.60;;;;;;;;;;5094633;28;20479;-60
2023/10/14 09:34:04;;;;;;;7.27;1.93;;;;;;;;;;5094621;28;20447;-59
2023/10/14 09:36:42;;;;;;;5.63;1.30;;;;;;;;;;5094396;28;20450;-59
2023/10/14 09:39:13;;;;;;;4.67;1.60;;;;;;;;;;5094454;28;20590;-60
2023/10/14 09:41:40;;;;;;;3.87;1.60;;;;;;;;;;5094571;28;20438;-59
2023/10/14 09:44:08;;;;;;;2.80;1.20;;;;;;;;;;5094422;28;20439;-60
2023/10/14 09:46:36;;;;;;;2.73;1.37;;;;;;;;;;5094607;28;20441;-60
2023/10/14 09:49:03;;;;;;;3.63;1.00;;;;;;;;;;5094206;28;20478;-60
2023/10/14 09:51:31;;;;;;;3.53;1.37;;;;;;;;;;5094110;28;20481;-60
2023/10/14 09:54:00;;;;;;;8.20;1.60;;;;;;;;;;5094267;28;20446;-59
2023/10/14 09:56:28;;;;;;;8.57;1.93;;;;;;;;;;5094141;28;20450;-60
2023/10/14 09:58:57;;;;;;;3.80;1.70;;;;;;;;;;5094058;28;20443;-60
2023/10/14 10:01:26;;;;;;;3.93;1.47;;;;;;;;;;5094223;28;20451;-59
2023/10/14 10:03:57;;;;;;;3.73;1.40;;;;;;;;;;5093053;28;20922;-60
2023/10/14 10:06:35;;;;;;;2.83;1.10;;;;;;;;;;5093978;28;20531;-60
2023/10/14 10:09:22;;;;;;;7.23;2.10;;;;;;;;;;5094122;28;20464;-60
2023/10/14 10:11:51;;;;;;;6.47;1.50;;;;;;;;;;5093727;28;20477;-59
2023/10/14 10:14:19;;;;;;;5.73;1.43;;;;;;;;;;5094131;28;20504;-59
2023/10/14 10:16:48;;;;;;;2.87;1.20;;;;;;;;;;5093958;28;20478;-60
2023/10/14 10:19:15;;;;;;;4.87;1.57;;;;;;;;;;5093549;28;20534;-59
2023/10/14 10:22:02;;;;;;;3.70;1.00;;;;;;;;;;5093796;28;20481;-60
2023/10/14 10:24:34;;;;;;;6.17;1.53;;;;;;;;;;5093466;28;20873;-60
2023/10/14 10:27:10;;;;;;;4.67;1.10;;;;;;;;;;5093802;28;20443;-59
2023/10/14 10:29:43;;;;;;;4.27;1.53;;;;;;;;;;5093617;28;20446;-59
2023/10/14 10:32:12;;;;;;;4.63;2.07;;;;;;;;;;5093539;28;20539;-60
2023/10/14 10:34:54;;;;;;;4.70;1.30;;;;;;;;;;5093524;28;20454;-60
2023/10/14 10:37:21;;;;;;;2.73;1.40;;;;;;;;;;5093353;28;20526;-60
2023/10/14 10:39:50;;;;;;;2.90;1.20;;;;;;;;;;5093466;28;20805;-60
2023/10/14 10:42:17;;;;;;;4.23;1.47;;;;;;;;;;5093361;28;20453;-60
2023/10/14 10:44:46;;;;;;;5.40;1.63;;;;;;;;;;5093323;28;20443;-59
2023/10/14 10:47:15;;;;;;;4.13;1.50;;;;;;;;;;5093207;28;20878;-60
2023/10/14 10:49:58;;;;;;;2.37;1.07;;;;;;;;;;5093123;28;20446;-60
2023/10/14 10:52:27;;;;;;;4.53;1.27;;;;;;;;;;5093163;28;20518;-60
2023/10/14 10:54:56;;;;;;;4.47;1.10;;;;;;;;;;5093307;28;20485;-59
2023/10/14 10:57:24;;;;;;;3.93;1.67;;;;;;;;;;5093142;28;20474;-60
2023/10/14 10:59:51;;;;;;;4.00;1.27;;;;;;;;;;5092952;28;20446;-60
2023/10/14 11:02:19;;;;;;;2.73;1.20;;;;;;;;;;5093298;28;20458;-59
2023/10/14 11:04:48;;;;;;;3.47;1.20;;;;;;;;;;5093144;28;20485;-60
2023/10/14 11:07:15;;;;;;;3.30;1.20;;;;;;;;;;5092882;28;20470;-60
2023/10/14 11:09:42;;;;;;;1.90;1.20;;;;;;;;;;5093087;28;20474;-60
2023/10/14 11:12:10;;;;;;;3.53;1.20;;;;;;;;;;5092919;28;20617;-60
2023/10/14 11:14:37;;;;;;;6.50;1.70;;;;;;;;;;5094602;28;20533;-60
2023/10/14 11:17:04;;;;;;;3.70;1.40;;;;;;;;;;5099853;28;20452;-60
2023/10/14 11:19:32;;;;;;;2.33;1.23;;;;;;;;;;5099779;28;20446;-60
2023/10/14 11:21:59;;;;;;;4.27;1.30;;;;;;;;;;5099762;28;20537;-60
2023/10/14 11:24:26;;;;;;;6.50;1.10;;;;;;;;;;5099616;28;20888;-60
2023/10/14 11:26:55;;;;;;;5.53;1.77;;;;;;;;;;5099556;28;20449;-60
2023/10/14 11:29:24;;;;;;;2.67;1.10;;;;;;;;;;5099833;28;20790;-59
2023/10/14 11:31:54;;;;;;;4.77;1.70;;;;;;;;;;5099692;28;20472;-60
2023/10/14 11:34:21;;;;;;;5.63;1.23;;;;;;;;;;5099650;28;20450;-60
2023/10/14 11:36:49;;;;;;;3.87;1.40;;;;;;;;;;5099499;28;20532;-60
2023/10/14 11:39:18;;;;;;;3.93;1.43;;;;;;;;;;5099431;28;20799;-60
2023/10/14 11:41:45;;;;;;;3.47;1.40;;;;;;;;;;5099379;28;20504;-60
2023/10/14 11:44:17;;;;;;;6.77;1.30;;;;;;;;;;5099660;28;20576;-60
2023/10/14 11:46:45;;;;;;;5.77;1.37;;;;;;;;;;5099516;28;20492;-60
2023/10/14 11:49:13;;;;;;;4.80;1.37;;;;;;;;;;5099452;28;20470;-60
2023/10/14 11:51:43;;;;;;;7.80;1.67;;;;;;;;;;5099264;28;20438;-60
2023/10/14 11:54:11;;;;;;;4.57;1.20;;;;;;;;;;5099275;28;20442;-60
2023/10/14 11:56:38;;;;;;;3.57;1.30;;;;;;;;;;5099537;28;20448;-60
2023/10/14 11:59:06;;;;;;;2.77;1.67;;;;;;;;;;5099390;28;20519;-60
2023/10/14 12:01:34;;;;;;;8.53;1.77;;;;;;;;;;5099383;28;20439;-60
2023/10/14 12:04:02;;;;;;;3.77;1.47;;;;;;;;;;5099496;28;20450;-60
2023/10/14 12:06:33;;;;;;;6.87;2.30;;;;;;;;;;5098986;28;20870;-60
2023/10/14 12:09:05;;;;;;;6.33;1.47;;;;;;;;;;5099544;28;20449;-60
2023/10/14 12:11:39;;;;;;;3.10;1.40;;;;;;;;;;5099384;28;20852;-60
2023/10/14 12:14:07;;;;;;;3.93;1.20;;;;;;;;;;5099284;28;20810;-60
2023/10/14 12:16:34;;;;;;;7.40;2.80;;;;;;;;;;5099151;28;20442;-60
2023/10/14 12:19:02;;;;;;;5.10;1.67;;;;;;;;;;5099126;28;20462;-60
2023/10/14 12:21:30;;;;;;;4.13;1.40;;;;;;;;;;5099408;28;20445;-60
2023/10/14 12:24:01;;;;;;;5.30;1.33;;;;;;;;;;5099146;28;20470;-60
2023/10/14 12:26:30;;;;;;;6.30;1.77;;;;;;;;;;5097167;28;20869;-60
2023/10/14 12:28:57;;;;;;;4.30;1.60;;;;;;;;;;5095915;28;20477;-60
2023/10/14 12:31:27;;;;;;;5.60;1.27;;;;;;;;;;5095809;28;20512;-60
2023/10/14 12:33:54;;;;;;;4.77;1.50;;;;;;;;;;5095669;28;20478;-60
2023/10/14 12:36:22;;;;;;;1.80;1.17;;;;;;;;;;5095874;28;20449;-60
2023/10/14 12:38:49;;;;;;;2.30;1.40;;;;;;;;;;5095602;28;20933;-60
2023/10/14 12:41:21;;;;;;;4.70;1.27;;;;;;;;;;5095722;28;20443;-60
2023/10/14 12:43:51;;;;;;;5.50;2.10;;;;;;;;;;5095737;28;20450;-60
2023/10/14 12:46:20;;;;;;;7.23;1.40;;;;;;;;;;5095609;28;20450;-60
2023/10/14 12:48:50;;;;;;;4.53;1.20;;;;;;;;;;5095594;28;20447;-60
2023/10/14 12:51:20;;;;;;;4.60;1.70;;;;;;;;;;5095564;28;20447;-59
2023/10/14 12:53:49;;;;;;;4.60;1.40;;;;;;;;;;5095338;28;20482;-60
2023/10/14 12:56:17;;;;;;;6.22;1.50;;;;;;;;;;5095229;28;20444;-60
2023/10/14 12:58:45;;;;;;;7.07;1.23;;;;;;;;;;5095272;28;20195;-60
2023/10/14 13:01:16;;;;;;;5.50;1.40;;;;;;;;;;5095322;28;20852;-60
2023/10/14 13:03:45;;;;;;;7.03;1.57;;;;;;;;;;5095624;28;20541;-60
2023/10/14 13:06:13;;;;;;;3.57;1.47;;;;;;;;;;5095027;28;20956;-60
2023/10/14 13:08:39;;;;;;;8.13;2.20;;;;;;;;;;5095202;28;20463;-60
2023/10/14 13:11:14;;;;;;;4.27;1.70;;;;;;;;;;5094933;28;21024;-60
2023/10/14 13:13:41;;;;;;;4.83;1.70;;;;;;;;;;5095120;28;20833;-59
2023/10/14 13:16:08;;;;;;;9.40;2.23;;;;;;;;;;5095057;28;20479;-60
2023/10/14 13:18:35;;;;;;;5.23;1.47;;;;;;;;;;5095026;28;20478;-60
2023/10/14 13:21:02;;;;;;;7.07;1.33;;;;;;;;;;5094907;28;20874;-60
2023/10/14 13:23:29;;;;;;;4.30;1.50;;;;;;;;;;5094910;28;20533;-60
2023/10/14 13:25:57;;;;;;;7.23;1.60;;;;;;;;;;5094929;28;20447;-60
2023/10/14 13:28:25;;;;;;;7.80;1.30;;;;;;;;;;5094792;28;20453;-60
2023/10/14 13:30:54;;;;;;;3.77;1.57;;;;;;;;;;5094724;28;20446;-60
2023/10/14 13:33:24;;;;;;;6.77;1.67;;;;;;;;;;5094573;28;20958;-60
2023/10/14 13:35:55;;;;;;;6.20;1.30;;;;;;;;;;5095075;28;20530;-60
2023/10/14 13:38:22;;;;;;;4.90;1.70;;;;;;;;;;5093298;28;20447;-60
2023/10/14 13:40:49;;;;;;;7.00;1.67;;;;;;;;;;5094626;28;20533;-60
2023/10/14 13:43:17;;;;;;;3.77;1.60;;;;;;;;;;5094516;28;20447;-60
2023/10/14 13:45:45;;;;;;;8.20;1.63;;;;;;;;;;5094517;28;20453;-60
2023/10/14 13:48:14;;;;;;;4.00;1.60;;;;;;;;;;5094348;28;20442;-60
2023/10/14 13:50:41;;;;;;;5.77;1.40;;;;;;;;;;5094270;28;20442;-60
2023/10/14 13:53:17;;;;;;;3.83;1.20;;;;;;;;;;5094205;28;20477;-60
2023/10/14 13:55:46;;;;;;;3.60;1.50;;;;;;;;;;5094392;28;20446;-60
2023/10/14 13:58:13;;;;;;;6.80;1.60;;;;;;;;;;5094230;28;20486;-60
2023/10/14 14:00:40;;;;;;;6.40;1.73;;;;;;;;;;5094256;28;20446;-60
2023/10/14 14:03:10;;;;;;;5.53;1.40;;;;;;;;;;5094309;28;20451;-60
2023/10/14 14:05:39;;;;;;;4.53;1.33;;;;;;;;;;5093944;28;20442;-60
2023/10/14 14:08:08;;;;;;;5.93;1.57;;;;;;;;;;5093984;28;20561;-60
2023/10/14 14:10:35;;;;;;;4.77;1.60;;;;;;;;;;5094021;28;20721;-60
2023/10/14 14:13:03;;;;;;;4.37;1.43;;;;;;;;;;5093833;28;20477;-60
2023/10/14 14:15:31;;;;;;;7.73;2.00;;;;;;;;;;5093919;28;20457;-60
2023/10/14 14:17:58;;;;;;;3.03;1.10;;;;;;;;;;5093702;28;20549;-60
2023/10/14 14:20:26;;;;;;;5.10;2.10;;;;;;;;;;5093911;28;20445;-60
2023/10/14 14:22:55;;;;;;;8.20;1.90;;;;;;;;;;5093811;28;20519;-60
2023/10/14 14:25:22;;;;;;;7.00;2.20;;;;;;;;;;5093713;28;20446;-60
2023/10/14 14:27:49;;;;;;;5.70;2.00;;;;;;;;;;5093589;28;20492;-60
2023/10/14 14:30:16;;;;;;;9.40;2.43;;;;;;;;;;5093549;28;20450;-60
2023/10/14 14:32:43;;;;;;;4.70;1.63;;;;;;;;;;5093396;28;20534;-60
2023/10/14 14:35:11;;;;;;;4.63;1.67;;;;;;;;;;5093645;28;20512;-60
2023/10/14 14:37:40;;;;;;;8.30;1.60;;;;;;;;;;5093503;28;20446;-60
2023/10/14 14:40:13;;;;;;;11.73;2.80;;;;;;;;;;5093467;28;20848;-60
2023/10/14 14:42:44;;;;;;;4.20;1.50;;;;;;;;;;5093433;28;20442;-60
2023/10/14 14:45:11;;;;;;;6.17;1.53;;;;;;;;;;5093314;28;20446;-60
2023/10/14 14:47:39;;;;;;;4.10;1.80;;;;;;;;;;5093503;28;20449;-60
2023/10/14 14:50:07;;;;;;;6.00;2.20;;;;;;;;;;5092922;28;20447;-60
2023/10/14 14:52:34;;;;;;;10.10;2.30;;;;;;;;;;5093233;28;20487;-60
2023/10/14 14:55:06;;;;;;;5.20;1.50;;;;;;;;;;5093122;28;20442;-59
2023/10/14 14:57:35;;;;;;;6.17;1.33;;;;;;;;;;5093106;28;20926;-60